Search for airport 
image banner adimage banner adimage banner ad
image banner ad

00A - Total Rf

Located in Bensalem, United States

ICAO - 00A, IATA -

Data provided by Airmate  

General information

Coordinates: N40°4'15" W74°56'1"
Elevation is 11 feet MSL.
Magnetic variation is -12° East
View others Airports in Pennsylvania

Operational data

Special qualification required
Current time UTC:
Current local time:
Weather at : KPNE - Northeast Philadelphia ( 7 km )
METAR: KPNE 071154Z 04009KT 10SM CLR 12/01 A2993 RMK AO2 SLP135 T01170011 10117 20061 56002
TAF: KPNE 071120Z 0712/0812 04005KT P6SM FEW250 FM072100 12006KT P6SM VCSH BKN070 FM080600 VRB03KT P6SM BKN035 FM081000 VRB02KT P6SM BKN030
View NOTAMs / SUP AIP / TFR affecting this airport [VIEW]
Communications frequencies: [VIEW]

Runways:

Airport contact information

Address: Bensalem United States

Satellite view of 00A